createdAt,value
2019-05-03T00:02:18.477Z,2.97
2019-05-03T00:04:48.861Z,3.20
2019-05-03T00:07:17.325Z,3.50
2019-05-03T00:09:45.967Z,3.23
2019-05-03T00:12:14.574Z,3.30
2019-05-03T00:14:44.710Z,3.60
2019-05-03T00:17:13.674Z,3.80
2019-05-03T00:19:42.362Z,3.23
2019-05-03T00:22:12.424Z,3.03
2019-05-03T00:24:42.652Z,3.23
2019-05-03T00:27:12.578Z,3.07
2019-05-03T00:29:41.787Z,3.40
2019-05-03T00:32:12.305Z,2.77
2019-05-03T00:34:48.303Z,3.17
2019-05-03T00:37:22.105Z,2.80
2019-05-03T00:40:07.391Z,2.50
2019-05-03T00:42:35.870Z,2.70
2019-05-03T00:45:06.696Z,2.80
2019-05-03T00:47:35.146Z,2.57
2019-05-03T00:50:04.695Z,2.53
2019-05-03T00:52:33.182Z,2.30
2019-05-03T00:55:02.189Z,2.50
2019-05-03T00:57:32.345Z,2.00
2019-05-03T01:00:02.078Z,1.93
2019-05-03T01:02:31.885Z,2.20
2019-05-03T01:05:02.617Z,2.50
2019-05-03T01:07:31.890Z,2.10
2019-05-03T01:10:02.728Z,1.77
2019-05-03T01:12:32.457Z,1.90
2019-05-03T01:15:02.801Z,2.13
2019-05-03T01:17:32.325Z,2.30
2019-05-03T01:20:02.732Z,2.13
2019-05-03T01:22:32.232Z,1.90
2019-05-03T01:25:02.917Z,2.20
2019-05-03T01:27:32.685Z,2.20
2019-05-03T01:30:02.894Z,2.00
2019-05-03T01:32:32.867Z,1.97
2019-05-03T01:35:03.133Z,1.77
2019-05-03T01:37:32.161Z,1.67
2019-05-03T01:40:02.309Z,2.00
2019-05-03T01:42:32.108Z,2.00
2019-05-03T01:45:01.845Z,1.87
2019-05-03T01:47:32.595Z,2.33
2019-05-03T01:50:02.971Z,2.13
2019-05-03T01:52:33.088Z,1.73
2019-05-03T01:55:03.322Z,1.83
2019-05-03T01:57:32.479Z,1.93
2019-05-03T02:00:02.820Z,1.60
2019-05-03T02:02:32.853Z,1.90
2019-05-03T02:05:18.019Z,1.73
2019-05-03T02:07:48.606Z,2.40
2019-05-03T02:10:16.727Z,1.70
2019-05-03T02:12:45.204Z,1.90
2019-05-03T02:15:13.719Z,2.03
2019-05-03T02:17:42.652Z,2.13
2019-05-03T02:20:12.600Z,2.00
2019-05-03T02:22:42.800Z,2.13
2019-05-03T02:25:12.383Z,2.03
2019-05-03T02:27:42.305Z,2.27
2019-05-03T02:30:14.329Z,2.37
2019-05-03T02:32:43.897Z,1.90
2019-05-03T02:35:13.954Z,2.17
2019-05-03T02:37:44.186Z,2.30
2019-05-03T02:40:13.294Z,2.70
2019-05-03T02:42:46.117Z,1.93
2019-05-03T02:45:21.473Z,2.43
2019-05-03T02:47:51.589Z,2.20
2019-05-03T02:50:20.111Z,2.33
2019-05-03T02:52:48.616Z,2.07
2019-05-03T02:55:17.412Z,2.20
2019-05-03T02:57:46.830Z,1.80
2019-05-03T03:00:16.636Z,2.00
2019-05-03T03:02:45.800Z,2.30
2019-05-03T03:05:16.717Z,1.83
2019-05-03T03:07:46.936Z,2.03
2019-05-03T03:10:16.499Z,2.30
2019-05-03T03:12:46.894Z,2.60
2019-05-03T03:15:16.358Z,2.20
2019-05-03T03:17:47.192Z,2.47
2019-05-03T03:20:16.340Z,1.97
2019-05-03T03:22:45.792Z,2.40
2019-05-03T03:25:17.526Z,2.10
2019-05-03T03:27:48.154Z,2.00
2019-05-03T03:30:38.175Z,1.87
2019-05-03T03:33:09.696Z,2.13
2019-05-03T03:35:39.176Z,2.67
2019-05-03T03:38:08.221Z,2.00
2019-05-03T03:40:38.226Z,2.37
2019-05-03T03:43:08.274Z,2.47
2019-05-03T03:45:38.780Z,2.00
2019-05-03T03:48:10.551Z,2.43
2019-05-03T03:50:41.948Z,1.90
2019-05-03T03:53:12.259Z,2.33
2019-05-03T03:55:45.673Z,2.77
2019-05-03T03:58:21.173Z,1.87
2019-05-03T04:00:46.417Z,2.37
2019-05-03T04:03:15.832Z,2.30
2019-05-03T04:05:46.692Z,2.93
2019-05-03T04:08:16.181Z,2.57
2019-05-03T04:10:46.306Z,2.67
2019-05-03T04:13:16.168Z,2.27
2019-05-03T04:15:46.436Z,2.10
2019-05-03T04:18:29.988Z,2.57
2019-05-03T04:20:58.494Z,2.27
2019-05-03T04:23:29.543Z,2.00
2019-05-03T04:25:58.813Z,2.57
2019-05-03T04:28:27.458Z,2.40
2019-05-03T04:30:56.054Z,2.27
2019-05-03T04:33:26.901Z,2.17
2019-05-03T04:35:55.702Z,2.57
2019-05-03T04:38:25.583Z,2.73
2019-05-03T04:40:56.225Z,2.63
2019-05-03T04:43:26.387Z,2.80
2019-05-03T04:46:06.772Z,2.20
2019-05-03T04:48:35.943Z,2.57
2019-05-03T04:51:05.877Z,2.80
2019-05-03T04:53:36.340Z,2.30
2019-05-03T04:56:05.708Z,2.23
2019-05-03T04:58:36.407Z,2.23
2019-05-03T05:01:06.410Z,2.43
2019-05-03T05:03:36.083Z,2.20
2019-05-03T05:06:06.235Z,2.13
2019-05-03T05:08:35.829Z,2.57
2019-05-03T05:11:05.798Z,2.60
2019-05-03T05:13:35.575Z,2.57
2019-05-03T05:16:05.870Z,2.30
2019-05-03T05:18:36.392Z,1.87
2019-05-03T05:21:18.267Z,2.63
2019-05-03T05:24:00.444Z,2.20
2019-05-03T05:26:30.581Z,2.40
2019-05-03T05:29:00.688Z,2.70
2019-05-03T05:31:29.161Z,2.80
2019-05-03T05:33:57.631Z,2.83
2019-05-03T05:36:26.103Z,2.30
2019-05-03T05:38:55.222Z,2.60
2019-05-03T05:41:24.488Z,2.73
2019-05-03T05:43:54.838Z,2.37
2019-05-03T05:46:25.011Z,2.57
2019-05-03T05:48:55.456Z,2.83
2019-05-03T05:51:24.846Z,2.83
2019-05-03T05:53:54.928Z,2.57
2019-05-03T05:56:35.327Z,2.80
2019-05-03T05:59:08.240Z,2.90
2019-05-03T06:01:38.444Z,2.87
2019-05-03T06:04:09.826Z,2.83
2019-05-03T06:06:55.404Z,2.77
2019-05-03T06:09:31.248Z,2.63
2019-05-03T06:12:09.868Z,3.17
2019-05-03T06:14:42.667Z,2.50
2019-05-03T06:17:14.621Z,2.43
2019-05-03T06:19:45.012Z,2.53
2019-05-03T06:22:15.417Z,3.20
2019-05-03T06:25:00.610Z,2.93
2019-05-03T06:27:30.724Z,2.40
2019-05-03T06:30:00.910Z,1.90
2019-05-03T06:32:34.570Z,2.90
2019-05-03T06:35:04.947Z,2.73
2019-05-03T06:37:41.015Z,2.60
2019-05-03T06:40:09.928Z,2.60
2019-05-03T06:42:51.235Z,3.17
2019-05-03T06:45:11.644Z,3.20
2019-05-03T06:47:40.310Z,2.90
2019-05-03T06:50:09.890Z,7.10
2019-05-03T06:52:38.370Z,5.87
2019-05-03T06:55:10.450Z,4.50
2019-05-03T06:57:40.037Z,4.07
2019-05-03T07:00:11.430Z,2.87
2019-05-03T07:02:41.554Z,2.90
2019-05-03T07:05:28.199Z,2.90
2019-05-03T07:08:01.310Z,3.00
2019-05-03T07:10:37.573Z,3.50
2019-05-03T07:13:08.754Z,2.67
2019-05-03T07:15:36.286Z,2.53
2019-05-03T07:18:05.758Z,3.10
2019-05-03T07:20:54.379Z,3.03
2019-05-03T07:23:21.789Z,2.73
2019-05-03T07:25:50.270Z,2.90
2019-05-03T07:28:18.771Z,2.40
2019-05-03T07:30:47.234Z,2.40
2019-05-03T07:33:20.343Z,2.63
2019-05-03T07:35:48.797Z,2.43
2019-05-03T07:38:17.272Z,2.67
2019-05-03T07:40:45.785Z,2.77
2019-05-03T07:43:14.847Z,2.50
2019-05-03T07:45:44.682Z,2.50
2019-05-03T07:48:15.024Z,2.43
2019-05-03T07:50:44.730Z,2.90
2019-05-03T07:53:15.010Z,3.00
2019-05-03T07:55:57.087Z,2.53
2019-05-03T07:58:27.179Z,2.73
2019-05-03T08:01:06.258Z,2.57
2019-05-03T08:03:30.181Z,2.80
2019-05-03T08:05:58.660Z,2.47
2019-05-03T08:08:27.305Z,2.30
2019-05-03T08:10:55.788Z,2.57
2019-05-03T08:13:25.363Z,2.70
2019-05-03T08:15:55.762Z,4.33
2019-05-03T08:18:25.656Z,3.67
2019-05-03T08:20:55.613Z,3.20
2019-05-03T08:23:29.292Z,2.67
2019-05-03T08:25:55.627Z,2.67
2019-05-03T08:28:24.661Z,2.23
2019-05-03T08:31:01.085Z,2.23
2019-05-03T08:33:44.820Z,2.30
2019-05-03T08:36:15.502Z,2.37
2019-05-03T08:38:45.254Z,2.25
2019-05-03T08:41:15.502Z,2.12
2019-05-03T08:43:44.613Z,2.65
2019-05-03T08:46:14.819Z,2.37
2019-05-03T08:48:45.565Z,1.90
2019-05-03T08:51:14.878Z,1.90
2019-05-03T08:53:45.674Z,1.87
2019-05-03T08:56:15.510Z,1.87
2019-05-03T08:58:45.124Z,1.90
2019-05-03T09:01:14.772Z,1.85
2019-05-03T09:03:45.602Z,1.98
2019-05-03T09:06:15.488Z,2.10
2019-05-03T09:08:45.794Z,2.62
2019-05-03T09:11:16.026Z,2.25
2019-05-03T09:13:57.706Z,2.40
2019-05-03T09:16:26.197Z,4.75
2019-05-03T09:18:55.034Z,1.98
2019-05-03T09:21:25.492Z,2.22
2019-05-03T09:23:55.371Z,2.17
2019-05-03T09:26:28.955Z,2.22
2019-05-03T09:28:55.634Z,2.37
2019-05-03T09:31:24.761Z,2.27
2019-05-03T09:33:54.832Z,2.33
2019-05-03T09:36:25.291Z,2.43
2019-05-03T09:38:54.959Z,2.37
2019-05-03T09:41:25.630Z,5.00
2019-05-03T09:43:55.431Z,2.10
2019-05-03T09:46:26.302Z,2.23
2019-05-03T09:49:09.481Z,2.10
2019-05-03T09:51:25.554Z,2.43
2019-05-03T09:54:14.841Z,1.70
2019-05-03T09:57:00.149Z,2.23
2019-05-03T09:59:29.574Z,1.93
2019-05-03T10:01:58.713Z,1.97
2019-05-03T10:04:27.172Z,1.77
2019-05-03T10:06:55.660Z,2.00
2019-05-03T10:09:26.076Z,1.97
2019-05-03T10:11:55.145Z,2.10
2019-05-03T10:14:24.017Z,2.00
2019-05-03T10:16:54.734Z,2.20
2019-05-03T10:19:34.853Z,2.10
2019-05-03T10:21:53.693Z,2.03
2019-05-03T10:24:22.153Z,2.00
2019-05-03T10:26:50.652Z,1.60
2019-05-03T10:29:19.121Z,1.80
2019-05-03T10:31:55.178Z,1.87
2019-05-03T10:34:24.802Z,2.00
2019-05-03T10:36:54.853Z,1.40
2019-05-03T10:39:26.093Z,1.97
2019-05-03T10:41:54.962Z,1.80
2019-05-03T10:44:24.560Z,1.97
2019-05-03T10:46:53.226Z,2.00
2019-05-03T10:49:21.777Z,1.73
2019-05-03T10:51:58.088Z,2.23
2019-05-03T10:54:26.562Z,1.97
2019-05-03T10:56:59.212Z,1.70
2019-05-03T10:59:27.711Z,2.17
2019-05-03T11:02:13.960Z,2.20
2019-05-03T11:04:44.270Z,1.97
2019-05-03T11:07:14.782Z,1.50
2019-05-03T11:09:49.657Z,2.40
2019-05-03T11:12:14.798Z,1.83
2019-05-03T11:14:45.391Z,2.07
2019-05-03T11:17:14.869Z,1.90
2019-05-03T11:19:45.258Z,1.83
2019-05-03T11:22:14.608Z,2.20
2019-05-03T11:24:45.189Z,1.93
2019-05-03T11:27:15.021Z,2.20
2019-05-03T11:29:45.052Z,1.80
2019-05-03T11:32:27.435Z,1.93
2019-05-03T11:35:11.669Z,2.33
2019-05-03T11:37:47.617Z,2.00
2019-05-03T11:40:16.541Z,1.97
2019-05-03T11:42:45.316Z,1.83
2019-05-03T11:45:15.264Z,1.60
2019-05-03T11:47:45.707Z,1.77
2019-05-03T11:50:14.943Z,2.00
2019-05-03T11:52:46.797Z,1.90
2019-05-03T11:55:15.963Z,1.80
2019-05-03T11:57:45.025Z,1.57
2019-05-03T12:00:15.876Z,1.87
2019-05-03T12:02:45.977Z,1.57
2019-05-03T12:05:19.068Z,1.90
2019-05-03T12:07:47.544Z,1.90
2019-05-03T12:10:32.784Z,1.60
2019-05-03T12:13:00.199Z,1.67
2019-05-03T12:15:28.680Z,1.70
2019-05-03T12:17:59.553Z,2.00
2019-05-03T12:20:29.865Z,2.00
2019-05-03T12:22:59.250Z,1.80
2019-05-03T12:25:28.652Z,1.60
2019-05-03T12:27:57.352Z,1.87
2019-05-03T12:30:27.782Z,1.83
2019-05-03T12:32:56.002Z,1.80
2019-05-03T12:35:24.737Z,1.90
2019-05-03T12:37:55.363Z,1.90
2019-05-03T12:40:25.358Z,1.90
2019-05-03T12:42:55.297Z,1.77
2019-05-03T12:45:24.747Z,1.73
2019-05-03T12:47:55.707Z,2.10
2019-05-03T12:50:25.182Z,2.10
2019-05-03T12:52:55.401Z,2.37
2019-05-03T12:55:24.795Z,2.53
2019-05-03T12:57:55.299Z,1.63
2019-05-03T13:00:41.897Z,1.87
2019-05-03T13:03:12.001Z,1.83
2019-05-03T13:05:40.507Z,2.00
2019-05-03T13:08:35.245Z,1.40
2019-05-03T13:11:05.232Z,1.40
2019-05-03T13:13:35.938Z,1.80
2019-05-03T13:16:04.956Z,1.80
2019-05-03T13:18:35.003Z,1.80
2019-05-03T13:21:05.711Z,1.93
2019-05-03T13:23:35.285Z,1.80
2019-05-03T13:26:05.934Z,1.93
2019-05-03T13:28:34.898Z,1.93
2019-05-03T13:31:05.702Z,2.17
2019-05-03T13:33:34.855Z,1.87
2019-05-03T13:36:03.646Z,2.33
2019-05-03T13:38:32.130Z,1.97
2019-05-03T13:41:00.606Z,1.87
2019-05-03T13:43:29.058Z,1.80
2019-05-03T13:45:57.552Z,1.73
2019-05-03T13:48:26.568Z,2.07
2019-05-03T13:50:55.265Z,2.10
2019-05-03T13:53:25.409Z,2.27
2019-05-03T13:55:55.222Z,2.00
2019-05-03T13:58:26.197Z,2.10
2019-05-03T14:00:54.997Z,2.30
2019-05-03T14:03:23.690Z,2.33
2019-05-03T14:05:52.230Z,1.70
2019-05-03T14:08:20.776Z,1.97
2019-05-03T14:10:49.242Z,2.20
2019-05-03T14:13:17.730Z,2.00
2019-05-03T14:15:46.216Z,1.90
2019-05-03T14:18:15.368Z,2.00
2019-05-03T14:20:51.513Z,1.93
2019-05-03T14:23:20.056Z,1.70
2019-05-03T14:25:48.529Z,1.57
2019-05-03T14:28:17.013Z,1.70
2019-05-03T14:30:45.881Z,1.77
2019-05-03T14:33:14.377Z,2.17
2019-05-03T14:35:42.835Z,1.50
2019-05-03T14:38:11.323Z,1.83
2019-05-03T14:40:39.796Z,2.10
2019-05-03T14:43:08.463Z,2.17
2019-05-03T14:45:36.960Z,1.87
2019-05-03T14:48:06.334Z,1.93
2019-05-03T14:50:35.249Z,2.00
2019-05-03T14:53:05.463Z,1.90
2019-05-03T14:55:38.944Z,2.13
2019-05-03T14:58:25.875Z,2.00
2019-05-03T15:01:08.421Z,1.60
2019-05-03T15:03:37.682Z,1.93
2019-05-03T15:06:06.143Z,2.00
2019-05-03T15:08:35.093Z,2.00
2019-05-03T15:11:05.285Z,1.90
2019-05-03T15:13:34.991Z,1.97
2019-05-03T15:16:05.232Z,1.90
2019-05-03T15:18:34.851Z,1.97
2019-05-03T15:21:05.352Z,1.80
2019-05-03T15:23:34.712Z,1.90
2019-05-03T15:26:05.157Z,1.60
2019-05-03T15:28:35.582Z,1.63
2019-05-03T15:31:04.584Z,1.90
2019-05-03T15:33:35.206Z,2.10
2019-05-03T15:36:04.743Z,2.03
2019-05-03T15:38:34.647Z,1.60
2019-05-03T15:41:05.207Z,1.73
2019-05-03T15:43:50.150Z,1.77
2019-05-03T15:46:20.267Z,1.70
2019-05-03T15:48:50.404Z,1.77
2019-05-03T15:51:18.854Z,1.80
2019-05-03T15:53:47.321Z,2.20
2019-05-03T15:56:15.784Z,2.30
2019-05-03T15:58:46.848Z,2.13
2019-05-03T16:01:15.312Z,2.10
2019-05-03T16:03:44.890Z,2.07
2019-05-03T16:06:15.315Z,2.33
2019-05-03T16:08:44.617Z,2.30
2019-05-03T16:11:14.815Z,2.33
2019-05-03T16:13:44.807Z,1.90
2019-05-03T16:16:15.209Z,1.80
2019-05-03T16:18:44.851Z,1.97
2019-05-03T16:21:14.652Z,2.07
2019-05-03T16:23:46.371Z,2.03
2019-05-03T16:26:14.346Z,1.80
2019-05-03T16:29:01.214Z,1.60
2019-05-03T16:31:29.874Z,1.63
2019-05-03T16:33:58.339Z,2.33
2019-05-03T16:36:26.835Z,2.30
2019-05-03T16:38:55.508Z,2.10
2019-05-03T16:41:24.857Z,1.70
2019-05-03T16:43:53.405Z,1.67
2019-05-03T16:46:21.885Z,1.60
2019-05-03T16:48:50.354Z,1.77
2019-05-03T16:51:18.848Z,1.60
2019-05-03T16:53:47.300Z,1.80
2019-05-03T16:56:17.123Z,2.03
2019-05-03T16:58:45.842Z,1.93
2019-05-03T17:01:17.854Z,1.60
2019-05-03T17:03:49.144Z,2.10
2019-05-03T17:06:39.285Z,1.67
2019-05-03T17:09:14.535Z,2.07
2019-05-03T17:11:43.115Z,1.53
2019-05-03T17:14:11.598Z,1.80
2019-05-03T17:16:40.055Z,1.93
2019-05-03T17:19:08.506Z,1.73
2019-05-03T17:21:40.075Z,2.47
2019-05-03T17:24:08.531Z,1.70
2019-05-03T17:26:37.013Z,1.93
2019-05-03T17:29:05.484Z,2.10
2019-05-03T17:31:35.233Z,1.73
2019-05-03T17:34:05.563Z,2.10
2019-05-03T17:36:34.450Z,2.00
2019-05-03T17:39:04.685Z,1.83
2019-05-03T17:41:45.258Z,1.87
2019-05-03T17:44:27.628Z,1.80
2019-05-03T17:46:56.109Z,2.10
2019-05-03T17:49:24.577Z,2.17
2019-05-03T17:51:55.417Z,2.10
2019-05-03T17:54:28.405Z,2.10
2019-05-03T17:57:07.814Z,1.60
2019-05-03T17:59:40.615Z,2.23
2019-05-03T18:02:16.725Z,2.03
2019-05-03T18:04:47.101Z,2.27
2019-05-03T18:07:17.235Z,1.63
2019-05-03T18:09:47.325Z,2.00
2019-05-03T18:12:15.892Z,1.87
2019-05-03T18:14:45.126Z,1.93
2019-05-03T18:17:14.762Z,2.10
2019-05-03T18:19:44.842Z,1.87
2019-05-03T18:22:15.300Z,2.20
2019-05-03T18:24:45.509Z,2.13
2019-05-03T18:27:15.030Z,1.80
2019-05-03T18:29:44.989Z,2.17
2019-05-03T18:32:14.710Z,1.87
2019-05-03T18:34:45.222Z,2.20
2019-05-03T18:37:15.215Z,2.20
2019-05-03T18:39:45.267Z,2.07
2019-05-03T18:42:15.505Z,2.20
2019-05-03T18:44:45.621Z,1.90
2019-05-03T18:47:15.861Z,2.10
2019-05-03T18:49:44.730Z,2.57
2019-05-03T18:52:14.922Z,2.20
2019-05-03T18:54:44.487Z,2.43
2019-05-03T18:57:13.178Z,1.93
2019-05-03T18:59:41.661Z,1.97
2019-05-03T19:02:10.223Z,2.13
2019-05-03T19:04:52.323Z,2.40
2019-05-03T19:07:37.465Z,2.17
2019-05-03T19:10:11.635Z,2.10
2019-05-03T19:12:58.078Z,2.10
2019-05-03T19:15:28.222Z,2.10
2019-05-03T19:18:00.981Z,1.97
2019-05-03T19:20:29.461Z,2.00
2019-05-03T19:22:57.963Z,2.00
2019-05-03T19:25:26.452Z,2.03
2019-05-03T19:27:54.925Z,2.13
2019-05-03T19:30:24.502Z,2.40
2019-05-03T19:32:55.060Z,2.00
2019-05-03T19:35:27.275Z,2.30
2019-05-03T19:37:55.480Z,2.10
2019-05-03T19:40:25.639Z,2.10
2019-05-03T19:42:55.211Z,2.00
2019-05-03T19:45:24.833Z,2.20
2019-05-03T19:47:55.218Z,2.33
2019-05-03T19:50:26.973Z,2.90
2019-05-03T19:53:07.933Z,2.33
2019-05-03T19:55:36.433Z,2.30
2019-05-03T19:58:05.552Z,1.87
2019-05-03T20:00:38.723Z,2.13
2019-05-03T20:03:08.841Z,2.60
2019-05-03T20:05:54.009Z,2.37
2019-05-03T20:08:24.651Z,2.50
2019-05-03T20:10:55.002Z,2.63
2019-05-03T20:13:32.711Z,2.30
2019-05-03T20:15:55.540Z,2.40
2019-05-03T20:18:23.863Z,3.20
2019-05-03T20:20:52.370Z,2.40
2019-05-03T20:23:20.826Z,2.90
2019-05-03T20:25:49.312Z,2.87
2019-05-03T20:28:17.782Z,2.50
2019-05-03T20:30:46.237Z,2.67
2019-05-03T20:33:14.712Z,2.43
2019-05-03T20:35:44.991Z,2.90
2019-05-03T20:38:15.119Z,2.50
2019-05-03T20:40:45.056Z,3.07
2019-05-03T20:43:21.338Z,2.60
2019-05-03T20:45:54.700Z,2.77
2019-05-03T20:48:25.028Z,2.60
2019-05-03T20:50:55.117Z,2.47
2019-05-03T20:53:25.139Z,2.57
2019-05-03T20:55:54.587Z,2.70
2019-05-03T20:58:25.095Z,2.93
2019-05-03T21:00:54.516Z,2.73
2019-05-03T21:03:24.764Z,2.53
2019-05-03T21:05:55.259Z,2.80
2019-05-03T21:08:25.468Z,2.77
2019-05-03T21:10:55.187Z,3.00
2019-05-03T21:13:25.243Z,3.10
2019-05-03T21:15:55.629Z,2.37
2019-05-03T21:18:28.213Z,3.07
2019-05-03T21:20:58.345Z,2.47
2019-05-03T21:23:31.501Z,2.97
2019-05-03T21:26:13.281Z,2.73
2019-05-03T21:28:40.212Z,2.97
2019-05-03T21:31:08.662Z,2.97
2019-05-03T21:33:37.153Z,3.00
2019-05-03T21:36:05.814Z,2.70
2019-05-03T21:38:35.525Z,2.77
2019-05-03T21:41:05.324Z,2.60
2019-05-03T21:43:34.786Z,3.10
2019-05-03T21:46:21.544Z,2.60
2019-05-03T21:49:00.772Z,3.17
2019-05-03T21:51:29.252Z,2.93
2019-05-03T21:53:57.753Z,3.07
2019-05-03T21:56:26.191Z,3.00
2019-05-03T21:58:55.323Z,3.07
2019-05-03T22:01:25.945Z,2.97
2019-05-03T22:03:54.647Z,2.63
2019-05-03T22:06:24.634Z,2.87
2019-05-03T22:08:55.273Z,2.43
2019-05-03T22:11:25.159Z,2.93
2019-05-03T22:13:57.048Z,3.27
2019-05-03T22:16:39.357Z,3.77
2019-05-03T22:19:07.836Z,3.30
2019-05-03T22:21:56.087Z,4.03
2019-05-03T22:24:28.772Z,3.13
2019-05-03T22:26:58.857Z,3.73
2019-05-03T22:29:27.337Z,3.33
2019-05-03T22:31:55.858Z,3.07
2019-05-03T22:34:25.815Z,3.47
2019-05-03T22:36:54.947Z,3.17
2019-05-03T22:39:25.010Z,3.57
2019-05-03T22:41:53.778Z,3.80
2019-05-03T22:44:22.295Z,3.83
2019-05-03T22:46:50.750Z,3.70
2019-05-03T22:49:19.216Z,2.90
2019-05-03T22:51:47.686Z,3.50
2019-05-03T22:54:16.150Z,3.43
2019-05-03T22:56:44.919Z,3.83
2019-05-03T22:59:14.802Z,3.40
2019-05-03T23:01:45.499Z,3.50
2019-05-03T23:04:14.712Z,3.67
2019-05-03T23:06:46.755Z,3.57
2019-05-03T23:09:15.674Z,3.37
2019-05-03T23:11:44.746Z,3.40
2019-05-03T23:14:15.046Z,3.60
2019-05-03T23:16:44.869Z,4.03
2019-05-03T23:19:14.886Z,3.67
2019-05-03T23:21:51.228Z,3.70
2019-05-03T23:24:19.684Z,3.70
2019-05-03T23:26:48.172Z,4.00
2019-05-03T23:29:16.627Z,3.43
2019-05-03T23:31:45.120Z,3.80
2019-05-03T23:34:13.586Z,4.00
2019-05-03T23:36:42.067Z,3.33
2019-05-03T23:39:10.533Z,3.80
2019-05-03T23:41:39.012Z,3.70
2019-05-03T23:44:07.461Z,3.73
2019-05-03T23:46:37.580Z,3.17
2019-05-03T23:49:06.038Z,4.47
2019-05-03T23:51:51.300Z,4.07
2019-05-03T23:54:19.752Z,3.83
2019-05-03T23:56:48.239Z,3.73
2019-05-03T23:59:16.763Z,4.27
